sensor_id;sensor_type;location;lat;lon;timestamp;P1;durP1;ratioP1;P2;durP2;ratioP2
60225;SDS011;46090;48.436;11.410;2022-11-20T00:00:16;1.92;;;0.50;;
60225;SDS011;46090;48.436;11.410;2022-11-20T00:02:43;2.55;;;0.50;;
60225;SDS011;46090;48.436;11.410;2022-11-20T00:05:10;1.52;;;0.40;;
60225;SDS011;46090;48.436;11.410;2022-11-20T00:07:37;1.40;;;0.30;;
60225;SDS011;46090;48.436;11.410;2022-11-20T00:10:03;2.17;;;0.40;;
60225;SDS011;46090;48.436;11.410;2022-11-20T00:12:31;1.25;;;0.38;;
60225;SDS011;46090;48.436;11.410;2022-11-20T00:14:58;1.60;;;0.50;;
60225;SDS011;46090;48.436;11.410;2022-11-20T00:17:24;1.08;;;0.30;;
60225;SDS011;46090;48.436;11.410;2022-11-20T00:19:51;1.50;;;0.30;;
60225;SDS011;46090;48.436;11.410;2022-11-20T00:22:18;1.33;;;0.32;;
60225;SDS011;46090;48.436;11.410;2022-11-20T00:24:44;1.73;;;0.30;;
60225;SDS011;46090;48.436;11.410;2022-11-20T00:27:11;0.73;;;0.30;;
60225;SDS011;46090;48.436;11.410;2022-11-20T00:29:37;0.82;;;0.28;;
60225;SDS011;46090;48.436;11.410;2022-11-20T00:32:04;1.25;;;0.30;;
60225;SDS011;46090;48.436;11.410;2022-11-20T00:34:30;1.38;;;0.40;;
60225;SDS011;46090;48.436;11.410;2022-11-20T00:36:57;1.15;;;0.35;;
60225;SDS011;46090;48.436;11.410;2022-11-20T00:39:24;1.13;;;0.40;;
60225;SDS011;46090;48.436;11.410;2022-11-20T00:41:50;1.35;;;0.35;;
60225;SDS011;46090;48.436;11.410;2022-11-20T00:44:17;1.50;;;0.30;;
60225;SDS011;46090;48.436;11.410;2022-11-20T00:46:44;0.93;;;0.30;;
60225;SDS011;46090;48.436;11.410;2022-11-20T00:49:10;2.42;;;0.30;;
60225;SDS011;46090;48.436;11.410;2022-11-20T00:51:37;0.88;;;0.30;;
60225;SDS011;46090;48.436;11.410;2022-11-20T00:54:03;1.05;;;0.30;;
60225;SDS011;46090;48.436;11.410;2022-11-20T00:56:30;0.82;;;0.30;;
60225;SDS011;46090;48.436;11.410;2022-11-20T00:58:58;1.75;;;0.30;;
60225;SDS011;46090;48.436;11.410;2022-11-20T01:01:26;1.05;;;0.30;;
60225;SDS011;46090;48.436;11.410;2022-11-20T01:03:56;1.60;;;0.35;;
60225;SDS011;46090;48.436;11.410;2022-11-20T01:06:25;0.75;;;0.30;;
60225;SDS011;46090;48.436;11.410;2022-11-20T01:08:56;1.08;;;0.30;;
60225;SDS011;46090;48.436;11.410;2022-11-20T01:11:28;1.20;;;0.30;;
60225;SDS011;46090;48.436;11.410;2022-11-20T01:13:57;1.85;;;0.40;;
60225;SDS011;46090;48.436;11.410;2022-11-20T01:16:26;1.50;;;0.40;;
60225;SDS011;46090;48.436;11.410;2022-11-20T01:18:55;1.13;;;0.30;;
60225;SDS011;46090;48.436;11.410;2022-11-20T01:21:24;1.02;;;0.30;;
60225;SDS011;46090;48.436;11.410;2022-11-20T01:23:56;0.98;;;0.30;;
60225;SDS011;46090;48.436;11.410;2022-11-20T01:26:24;1.20;;;0.32;;
60225;SDS011;46090;48.436;11.410;2022-11-20T01:28:55;0.85;;;0.25;;
60225;SDS011;46090;48.436;11.410;2022-11-20T01:31:28;0.90;;;0.20;;
60225;SDS011;46090;48.436;11.410;2022-11-20T01:33:57;1.58;;;0.40;;
60225;SDS011;46090;48.436;11.410;2022-11-20T01:36:27;1.40;;;0.30;;
60225;SDS011;46090;48.436;11.410;2022-11-20T01:38:56;1.17;;;0.20;;
60225;SDS011;46090;48.436;11.410;2022-11-20T01:41:24;1.23;;;0.28;;
60225;SDS011;46090;48.436;11.410;2022-11-20T01:44:12;1.52;;;0.30;;
60225;SDS011;46090;48.436;11.410;2022-11-20T01:52:20;1.35;;;0.30;;
60225;SDS011;46090;48.436;11.410;2022-11-20T01:54:56;2.75;;;0.60;;
60225;SDS011;46090;48.436;11.410;2022-11-20T01:57:27;1.30;;;0.32;;
60225;SDS011;46090;48.436;11.410;2022-11-20T01:59:57;1.67;;;0.32;;
60225;SDS011;46090;48.436;11.410;2022-11-20T02:02:39;2.03;;;0.30;;
60225;SDS011;46090;48.436;11.410;2022-11-20T02:05:34;1.00;;;0.20;;
60225;SDS011;46090;48.436;11.410;2022-11-20T02:08:00;0.80;;;0.25;;
60225;SDS011;46090;48.436;11.410;2022-11-20T02:10:29;1.13;;;0.20;;
60225;SDS011;46090;48.436;11.410;2022-11-20T02:12:55;0.65;;;0.20;;
60225;SDS011;46090;48.436;11.410;2022-11-20T02:15:42;1.58;;;0.40;;
60225;SDS011;46090;48.436;11.410;2022-11-20T02:18:10;1.27;;;0.30;;
60225;SDS011;46090;48.436;11.410;2022-11-20T02:20:38;1.42;;;0.38;;
60225;SDS011;46090;48.436;11.410;2022-11-20T02:23:08;1.52;;;0.40;;
60225;SDS011;46090;48.436;11.410;2022-11-20T02:25:37;1.25;;;0.30;;
60225;SDS011;46090;48.436;11.410;2022-11-20T02:28:05;0.80;;;0.20;;
60225;SDS011;46090;48.436;11.410;2022-11-20T02:30:32;1.08;;;0.30;;
60225;SDS011;46090;48.436;11.410;2022-11-20T02:32:59;1.10;;;0.30;;
60225;SDS011;46090;48.436;11.410;2022-11-20T02:37:53;1.00;;;0.25;;
60225;SDS011;46090;48.436;11.410;2022-11-20T02:40:21;0.90;;;0.20;;
60225;SDS011;46090;48.436;11.410;2022-11-20T02:42:51;0.68;;;0.25;;
60225;SDS011;46090;48.436;11.410;2022-11-20T02:45:18;1.80;;;0.20;;
60225;SDS011;46090;48.436;11.410;2022-11-20T09:16:07;5.68;;;0.85;;
60225;SDS011;46090;48.436;11.410;2022-11-20T09:18:35;4.57;;;0.73;;
60225;SDS011;46090;48.436;11.410;2022-11-20T09:21:06;5.40;;;0.65;;
60225;SDS011;46090;48.436;11.410;2022-11-20T09:23:37;7.15;;;0.80;;
60225;SDS011;46090;48.436;11.410;2022-11-20T09:26:05;6.45;;;0.75;;
60225;SDS011;46090;48.436;11.410;2022-11-20T09:28:36;6.40;;;0.63;;
60225;SDS011;46090;48.436;11.410;2022-11-20T09:31:11;7.68;;;0.77;;
60225;SDS011;46090;48.436;11.410;2022-11-20T09:33:44;4.63;;;0.80;;
60225;SDS011;46090;48.436;11.410;2022-11-20T09:36:11;5.75;;;0.88;;
60225;SDS011;46090;48.436;11.410;2022-11-20T09:38:37;3.28;;;0.70;;
60225;SDS011;46090;48.436;11.410;2022-11-20T09:41:04;3.53;;;0.45;;
60225;SDS011;46090;48.436;11.410;2022-11-20T09:51:58;2.80;;;0.60;;
60225;SDS011;46090;48.436;11.410;2022-11-20T09:54:28;5.57;;;0.60;;
60225;SDS011;46090;48.436;11.410;2022-11-20T09:57:00;5.63;;;0.93;;
60225;SDS011;46090;48.436;11.410;2022-11-20T09:59:38;3.20;;;0.50;;
60225;SDS011;46090;48.436;11.410;2022-11-20T10:02:12;5.47;;;0.60;;
60225;SDS011;46090;48.436;11.410;2022-11-20T10:04:48;4.63;;;0.73;;
60225;SDS011;46090;48.436;11.410;2022-11-20T10:07:30;5.45;;;0.68;;
60225;SDS011;46090;48.436;11.410;2022-11-20T10:10:03;4.18;;;0.77;;
60225;SDS011;46090;48.436;11.410;2022-11-20T10:12:42;7.45;;;0.70;;
60225;SDS011;46090;48.436;11.410;2022-11-20T10:15:25;7.30;;;0.93;;
60225;SDS011;46090;48.436;11.410;2022-11-20T10:29:19;8.90;;;1.10;;
60225;SDS011;46090;48.436;11.410;2022-11-20T10:31:51;8.13;;;1.23;;
60225;SDS011;46090;48.436;11.410;2022-11-20T10:36:54;4.63;;;0.98;;
60225;SDS011;46090;48.436;11.410;2022-11-20T10:42:11;9.30;;;1.15;;
60225;SDS011;46090;48.436;11.410;2022-11-20T10:44:43;4.05;;;0.70;;
60225;SDS011;46090;48.436;11.410;2022-11-20T10:47:32;7.32;;;0.70;;
60225;SDS011;46090;48.436;11.410;2022-11-20T10:50:01;6.68;;;1.00;;
60225;SDS011;46090;48.436;11.410;2022-11-20T11:00:36;4.22;;;0.60;;
60225;SDS011;46090;48.436;11.410;2022-11-20T11:03:07;5.22;;;1.20;;
60225;SDS011;46090;48.436;11.410;2022-11-20T11:06:47;7.13;;;0.90;;
60225;SDS011;46090;48.436;11.410;2022-11-20T11:09:03;7.53;;;0.93;;
60225;SDS011;46090;48.436;11.410;2022-11-20T11:11:35;5.13;;;0.82;;
60225;SDS011;46090;48.436;11.410;2022-11-20T11:14:07;3.55;;;0.70;;
60225;SDS011;46090;48.436;11.410;2022-11-20T11:16:40;4.25;;;0.60;;
60225;SDS011;46090;48.436;11.410;2022-11-20T11:19:16;5.40;;;0.80;;
60225;SDS011;46090;48.436;11.410;2022-11-20T11:21:49;2.67;;;0.65;;
60225;SDS011;46090;48.436;11.410;2022-11-20T11:24:22;3.85;;;0.50;;
60225;SDS011;46090;48.436;11.410;2022-11-20T11:27:11;4.07;;;0.40;;
60225;SDS011;46090;48.436;11.410;2022-11-20T11:34:40;3.22;;;0.55;;
60225;SDS011;46090;48.436;11.410;2022-11-20T11:37:15;3.45;;;0.50;;
60225;SDS011;46090;48.436;11.410;2022-11-20T11:39:43;4.18;;;0.63;;
60225;SDS011;46090;48.436;11.410;2022-11-20T11:42:20;4.80;;;0.63;;
60225;SDS011;46090;48.436;11.410;2022-11-20T11:44:47;3.92;;;0.50;;
60225;SDS011;46090;48.436;11.410;2022-11-20T11:47:33;2.85;;;0.47;;
60225;SDS011;46090;48.436;11.410;2022-11-20T11:55:42;4.78;;;0.47;;
60225;SDS011;46090;48.436;11.410;2022-11-20T12:06:58;6.63;;;0.50;;
60225;SDS011;46090;48.436;11.410;2022-11-20T12:09:49;4.90;;;0.70;;
60225;SDS011;46090;48.436;11.410;2022-11-20T12:12:20;5.50;;;0.45;;
60225;SDS011;46090;48.436;11.410;2022-11-20T12:14:49;4.80;;;0.50;;
60225;SDS011;46090;48.436;11.410;2022-11-20T12:17:19;4.80;;;0.40;;
60225;SDS011;46090;48.436;11.410;2022-11-20T12:19:45;2.80;;;0.65;;
60225;SDS011;46090;48.436;11.410;2022-11-20T12:25:11;4.60;;;0.63;;
60225;SDS011;46090;48.436;11.410;2022-11-20T12:30:28;3.35;;;0.30;;
60225;SDS011;46090;48.436;11.410;2022-11-20T12:47:24;4.88;;;0.25;;
60225;SDS011;46090;48.436;11.410;2022-11-20T12:52:41;3.97;;;0.40;;
60225;SDS011;46090;48.436;11.410;2022-11-20T12:55:32;1.88;;;0.35;;
60225;SDS011;46090;48.436;11.410;2022-11-20T13:04:14;2.75;;;0.32;;
60225;SDS011;46090;48.436;11.410;2022-11-20T13:06:45;2.05;;;0.20;;
60225;SDS011;46090;48.436;11.410;2022-11-20T13:09:13;2.15;;;0.30;;
60225;SDS011;46090;48.436;11.410;2022-11-20T13:11:58;3.15;;;0.30;;
60225;SDS011;46090;48.436;11.410;2022-11-20T13:17:11;2.95;;;0.60;;
60225;SDS011;46090;48.436;11.410;2022-11-20T13:19:52;3.00;;;0.35;;
60225;SDS011;46090;48.436;11.410;2022-11-20T13:22:27;2.08;;;0.28;;
60225;SDS011;46090;48.436;11.410;2022-11-20T13:27:22;3.28;;;0.28;;
60225;SDS011;46090;48.436;11.410;2022-11-20T13:30:11;2.17;;;0.28;;
60225;SDS011;46090;48.436;11.410;2022-11-20T13:33:22;1.73;;;0.20;;
60225;SDS011;46090;48.436;11.410;2022-11-20T13:35:36;1.33;;;0.25;;
60225;SDS011;46090;48.436;11.410;2022-11-20T13:38:11;3.45;;;0.30;;
60225;SDS011;46090;48.436;11.410;2022-11-20T13:40:50;4.72;;;0.50;;
60225;SDS011;46090;48.436;11.410;2022-11-20T13:46:05;5.65;;;0.60;;
60225;SDS011;46090;48.436;11.410;2022-11-20T13:48:40;9.07;;;0.57;;
60225;SDS011;46090;48.436;11.410;2022-11-20T14:01:17;6.25;;;0.60;;
60225;SDS011;46090;48.436;11.410;2022-11-20T14:03:46;4.93;;;0.50;;
60225;SDS011;46090;48.436;11.410;2022-11-20T14:06:32;6.22;;;0.40;;
60225;SDS011;46090;48.436;11.410;2022-11-20T14:09:00;5.72;;;0.52;;
60225;SDS011;46090;48.436;11.410;2022-11-20T14:11:28;6.10;;;0.52;;
60225;SDS011;46090;48.436;11.410;2022-11-20T14:16:30;4.45;;;0.50;;
60225;SDS011;46090;48.436;11.410;2022-11-20T14:19:17;6.00;;;0.40;;
60225;SDS011;46090;48.436;11.410;2022-11-20T14:21:46;4.72;;;0.40;;
60225;SDS011;46090;48.436;11.410;2022-11-20T14:24:13;4.80;;;0.38;;
60225;SDS011;46090;48.436;11.410;2022-11-20T14:26:44;5.60;;;0.60;;
60225;SDS011;46090;48.436;11.410;2022-11-20T14:29:13;5.85;;;0.60;;
60225;SDS011;46090;48.436;11.410;2022-11-20T14:31:53;6.57;;;0.80;;
60225;SDS011;46090;48.436;11.410;2022-11-20T14:34:25;5.70;;;0.63;;
60225;SDS011;46090;48.436;11.410;2022-11-20T14:36:54;9.60;;;0.90;;
60225;SDS011;46090;48.436;11.410;2022-11-20T14:39:31;12.85;;;1.88;;
60225;SDS011;46090;48.436;11.410;2022-11-20T14:42:01;13.85;;;2.55;;
60225;SDS011;46090;48.436;11.410;2022-11-20T14:44:30;15.23;;;1.88;;
60225;SDS011;46090;48.436;11.410;2022-11-20T14:46:58;10.55;;;1.40;;
60225;SDS011;46090;48.436;11.410;2022-11-20T14:49:26;10.73;;;1.08;;
60225;SDS011;46090;48.436;11.410;2022-11-20T14:54:48;13.05;;;2.40;;
60225;SDS011;46090;48.436;11.410;2022-11-20T14:57:27;11.55;;;1.75;;
60225;SDS011;46090;48.436;11.410;2022-11-20T15:02:43;12.43;;;1.88;;
60225;SDS011;46090;48.436;11.410;2022-11-20T15:05:12;19.05;;;2.85;;
60225;SDS011;46090;48.436;11.410;2022-11-20T15:07:39;14.55;;;1.73;;
60225;SDS011;46090;48.436;11.410;2022-11-20T15:12:55;19.05;;;1.40;;
60225;SDS011;46090;48.436;11.410;2022-11-20T15:18:02;24.00;;;2.58;;
60225;SDS011;46090;48.436;11.410;2022-11-20T15:20:33;18.70;;;2.55;;
60225;SDS011;46090;48.436;11.410;2022-11-20T15:22:59;20.67;;;2.30;;
60225;SDS011;46090;48.436;11.410;2022-11-20T15:25:27;17.67;;;1.77;;
60225;SDS011;46090;48.436;11.410;2022-11-20T15:27:55;14.63;;;2.28;;
60225;SDS011;46090;48.436;11.410;2022-11-20T15:30:22;24.92;;;2.67;;
60225;SDS011;46090;48.436;11.410;2022-11-20T15:32:49;30.73;;;3.15;;
60225;SDS011;46090;48.436;11.410;2022-11-20T15:35:16;18.00;;;2.70;;
60225;SDS011;46090;48.436;11.410;2022-11-20T15:37:43;19.10;;;1.83;;
60225;SDS011;46090;48.436;11.410;2022-11-20T15:40:10;16.77;;;2.30;;
60225;SDS011;46090;48.436;11.410;2022-11-20T15:42:37;14.55;;;2.20;;
60225;SDS011;46090;48.436;11.410;2022-11-20T15:45:04;19.17;;;2.05;;
60225;SDS011;46090;48.436;11.410;2022-11-20T15:47:32;15.88;;;2.13;;
60225;SDS011;46090;48.436;11.410;2022-11-20T15:50:00;15.85;;;2.17;;
60225;SDS011;46090;48.436;11.410;2022-11-20T15:52:26;24.23;;;3.53;;
60225;SDS011;46090;48.436;11.410;2022-11-20T15:55:01;15.60;;;2.28;;
60225;SDS011;46090;48.436;11.410;2022-11-20T15:57:34;22.85;;;3.00;;
60225;SDS011;46090;48.436;11.410;2022-11-20T16:00:01;17.58;;;2.33;;
60225;SDS011;46090;48.436;11.410;2022-11-20T16:02:36;18.33;;;2.08;;
60225;SDS011;46090;48.436;11.410;2022-11-20T16:05:03;11.27;;;2.10;;
60225;SDS011;46090;48.436;11.410;2022-11-20T16:07:30;22.05;;;3.35;;
60225;SDS011;46090;48.436;11.410;2022-11-20T16:09:57;17.10;;;2.00;;
60225;SDS011;46090;48.436;11.410;2022-11-20T16:12:24;14.43;;;2.20;;
60225;SDS011;46090;48.436;11.410;2022-11-20T16:15:09;16.58;;;2.30;;
60225;SDS011;46090;48.436;11.410;2022-11-20T16:17:54;15.32;;;1.67;;
60225;SDS011;46090;48.436;11.410;2022-11-20T16:20:21;15.93;;;2.50;;
60225;SDS011;46090;48.436;11.410;2022-11-20T16:22:47;15.50;;;2.70;;
60225;SDS011;46090;48.436;11.410;2022-11-20T16:25:14;12.30;;;1.80;;
60225;SDS011;46090;48.436;11.410;2022-11-20T16:27:41;11.18;;;2.00;;
60225;SDS011;46090;48.436;11.410;2022-11-20T16:30:08;13.50;;;1.80;;
60225;SDS011;46090;48.436;11.410;2022-11-20T16:32:36;18.77;;;2.20;;
60225;SDS011;46090;48.436;11.410;2022-11-20T16:35:04;21.00;;;1.88;;
60225;SDS011;46090;48.436;11.410;2022-11-20T16:37:33;12.32;;;1.55;;
60225;SDS011;46090;48.436;11.410;2022-11-20T16:40:00;19.58;;;2.50;;
60225;SDS011;46090;48.436;11.410;2022-11-20T16:42:26;11.27;;;2.08;;
60225;SDS011;46090;48.436;11.410;2022-11-20T16:44:53;15.57;;;1.85;;
60225;SDS011;46090;48.436;11.410;2022-11-20T16:47:20;11.27;;;1.33;;
60225;SDS011;46090;48.436;11.410;2022-11-20T16:49:47;15.93;;;1.83;;
60225;SDS011;46090;48.436;11.410;2022-11-20T16:52:13;13.00;;;1.77;;
60225;SDS011;46090;48.436;11.410;2022-11-20T16:54:40;11.68;;;1.30;;
60225;SDS011;46090;48.436;11.410;2022-11-20T16:57:06;13.13;;;1.80;;
60225;SDS011;46090;48.436;11.410;2022-11-20T16:59:33;9.68;;;1.48;;
60225;SDS011;46090;48.436;11.410;2022-11-20T17:01:59;14.93;;;1.80;;
60225;SDS011;46090;48.436;11.410;2022-11-20T17:04:26;15.95;;;2.25;;
60225;SDS011;46090;48.436;11.410;2022-11-20T17:06:53;8.65;;;1.50;;
60225;SDS011;46090;48.436;11.410;2022-11-20T17:09:19;12.10;;;1.10;;
60225;SDS011;46090;48.436;11.410;2022-11-20T17:11:47;11.07;;;2.00;;
60225;SDS011;46090;48.436;11.410;2022-11-20T17:14:13;18.27;;;2.00;;
60225;SDS011;46090;48.436;11.410;2022-11-20T17:16:40;14.63;;;1.50;;
60225;SDS011;46090;48.436;11.410;2022-11-20T17:19:07;10.43;;;1.85;;
60225;SDS011;46090;48.436;11.410;2022-11-20T17:21:34;13.00;;;1.92;;
60225;SDS011;46090;48.436;11.410;2022-11-20T17:24:03;9.32;;;1.25;;
60225;SDS011;46090;48.436;11.410;2022-11-20T17:26:31;10.07;;;1.90;;
60225;SDS011;46090;48.436;11.410;2022-11-20T17:28:59;12.10;;;2.08;;
60225;SDS011;46090;48.436;11.410;2022-11-20T17:31:31;8.80;;;1.27;;
60225;SDS011;46090;48.436;11.410;2022-11-20T17:33:59;12.23;;;1.70;;
60225;SDS011;46090;48.436;11.410;2022-11-20T17:36:27;14.85;;;1.73;;
60225;SDS011;46090;48.436;11.410;2022-11-20T17:38:54;16.00;;;1.80;;
60225;SDS011;46090;48.436;11.410;2022-11-20T17:41:21;15.68;;;1.90;;
60225;SDS011;46090;48.436;11.410;2022-11-20T17:43:57;10.63;;;1.90;;
60225;SDS011;46090;48.436;11.410;2022-11-20T17:48:54;13.95;;;1.80;;
60225;SDS011;46090;48.436;11.410;2022-11-20T17:51:22;11.05;;;1.45;;
60225;SDS011;46090;48.436;11.410;2022-11-20T17:53:51;11.35;;;2.03;;
60225;SDS011;46090;48.436;11.410;2022-11-20T17:56:19;11.77;;;1.58;;
60225;SDS011;46090;48.436;11.410;2022-11-20T18:01:32;11.45;;;1.75;;
60225;SDS011;46090;48.436;11.410;2022-11-20T18:03:59;11.30;;;1.15;;
60225;SDS011;46090;48.436;11.410;2022-11-20T18:06:26;20.35;;;2.05;;
60225;SDS011;46090;48.436;11.410;2022-11-20T18:08:53;7.22;;;1.10;;
60225;SDS011;46090;48.436;11.410;2022-11-20T18:11:21;11.55;;;1.20;;
60225;SDS011;46090;48.436;11.410;2022-11-20T18:13:51;7.43;;;1.15;;
60225;SDS011;46090;48.436;11.410;2022-11-20T18:16:38;8.60;;;1.30;;
60225;SDS011;46090;48.436;11.410;2022-11-20T18:19:09;9.77;;;1.50;;
60225;SDS011;46090;48.436;11.410;2022-11-20T18:21:37;8.95;;;1.38;;
60225;SDS011;46090;48.436;11.410;2022-11-20T18:24:04;11.07;;;1.35;;
60225;SDS011;46090;48.436;11.410;2022-11-20T18:26:31;9.55;;;1.25;;
60225;SDS011;46090;48.436;11.410;2022-11-20T18:28:57;10.00;;;1.00;;
60225;SDS011;46090;48.436;11.410;2022-11-20T18:31:31;9.35;;;1.45;;
60225;SDS011;46090;48.436;11.410;2022-11-20T18:33:58;10.70;;;1.70;;
60225;SDS011;46090;48.436;11.410;2022-11-20T19:39:17;3.22;;;0.75;;
60225;SDS011;46090;48.436;11.410;2022-11-20T19:41:44;5.93;;;0.90;;
60225;SDS011;46090;48.436;11.410;2022-11-20T19:44:12;6.13;;;0.70;;
60225;SDS011;46090;48.436;11.410;2022-11-20T19:46:39;4.80;;;0.60;;
60225;SDS011;46090;48.436;11.410;2022-11-20T19:49:07;6.40;;;0.82;;
60225;SDS011;46090;48.436;11.410;2022-11-20T20:18:14;4.68;;;0.50;;
60225;SDS011;46090;48.436;11.410;2022-11-20T20:20:41;4.75;;;0.60;;
60225;SDS011;46090;48.436;11.410;2022-11-20T20:23:08;8.57;;;0.70;;
60225;SDS011;46090;48.436;11.410;2022-11-20T20:25:34;4.18;;;0.60;;
60225;SDS011;46090;48.436;11.410;2022-11-20T20:28:03;5.20;;;1.05;;
60225;SDS011;46090;48.436;11.410;2022-11-20T20:30:30;3.05;;;0.57;;
60225;SDS011;46090;48.436;11.410;2022-11-20T20:32:57;4.22;;;0.77;;
60225;SDS011;46090;48.436;11.410;2022-11-20T20:35:23;3.58;;;0.55;;
60225;SDS011;46090;48.436;11.410;2022-11-20T20:37:51;3.55;;;0.57;;
60225;SDS011;46090;48.436;11.410;2022-11-20T20:40:18;5.15;;;0.60;;
60225;SDS011;46090;48.436;11.410;2022-11-20T20:42:45;5.55;;;0.80;;
60225;SDS011;46090;48.436;11.410;2022-11-20T20:45:12;3.85;;;0.50;;
60225;SDS011;46090;48.436;11.410;2022-11-20T20:47:39;4.55;;;0.60;;
60225;SDS011;46090;48.436;11.410;2022-11-20T20:50:08;13.02;;;1.05;;
